Date,TemperatureHighF,TemperatureAvgF,TemperatureLowF,DewpointHighF,DewpointAvgF,DewpointLowF,HumidityHigh,HumidityAvg,HumidityLow,PressureMaxIn,PressureMinIn,WindSpeedMaxMPH,WindSpeedAvgMPH,GustSpeedMaxMPH,PrecipitationSumIn
2014-1-1,60,38,29,-100,-100,-100,0,0,100,0.00,40.00,0,-999,0,0.00
2014-1-2,57,38,30,-100,-100,-100,0,0,100,0.00,40.00,0,-999,0,0.00
2014-1-3,63,39,32,-100,-100,-100,0,0,100,0.00,40.00,0,-999,0,0.00
2014-1-4,58,44,29,-100,-100,-100,0,0,100,0.00,40.00,0,-999,0,0.00
2014-1-5,61,36,29,-100,-100,-100,0,0,100,0.00,40.00,0,-999,0,0.00
2014-1-6,46,37,30,-100,-100,-100,0,0,100,0.00,40.00,0,-999,0,0.00
2014-1-7,53,38,30,-100,-100,-100,0,0,100,0.00,40.00,0,-999,0,0.00
2014-1-8,51,38,31,-100,-100,-100,0,0,100,0.00,40.00,0,-999,0,0.00
2014-1-9,47,41,38,-100,-100,-100,0,0,100,0.00,40.00,0,-999,0,0.00
2014-1-10,51,39,32,-100,-100,-100,0,0,100,0.00,40.00,0,-999,0,0.00
2014-1-11,44,39,32,-100,-100,-100,0,0,100,0.00,40.00,0,-999,0,0.26
2014-1-12,44,36,31,-100,-100,-100,0,0,100,0.00,40.00,0,-999,0,0.02
2014-1-13,54,38,30,-100,-100,-100,0,0,100,0.00,40.00,0,-999,0,0.00
2014-1-14,54,36,28,-100,-100,-100,0,0,100,0.00,40.00,0,-999,0,0.00
2014-1-15,57,36,29,-100,-100,-100,0,0,100,0.00,40.00,0,-999,0,0.00
2014-1-16,62,37,27,-100,-100,-100,0,0,100,0.00,40.00,0,-999,0,0.00
2014-1-17,62,40,31,-100,-100,-100,0,0,100,0.00,40.00,0,-999,0,0.00
2014-1-18,60,38,32,-100,-100,-100,0,0,100,0.00,40.00,0,-999,0,0.00
2014-1-19,62,38,30,-100,-100,-100,0,0,100,0.00,40.00,0,-999,0,0.00
2014-1-20,59,37,27,-100,-100,-100,0,0,100,0.00,40.00,0,-999,0,0.00
2014-1-21,58,33,27,-100,-100,-100,0,0,100,0.00,40.00,0,-999,0,0.00
2014-1-22,58,36,28,-100,-100,-100,0,0,100,0.00,40.00,0,-999,0,0.00
2014-1-23,61,48,42,-100,-100,-100,0,0,100,0.00,40.00,0,-999,0,0.00
2014-1-24,65,46,35,-100,-100,-100,0,0,100,0.00,40.00,0,-999,0,0.00
2014-1-25,67,42,30,-100,-100,-100,0,0,100,0.00,40.00,0,-999,0,0.00
2014-1-26,71,49,35,-100,-100,-100,0,0,100,0.00,40.00,0,-999,0,0.00
2014-1-27,49,38,32,-100,-100,-100,0,0,100,0.00,40.00,0,-999,0,0.00
2014-1-28,60,49,42,-100,-100,-100,0,0,100,0.00,40.00,0,-999,0,0.00
2014-1-29,51,47,42,-100,-100,-100,0,0,100,0.00,40.00,0,-999,0,0.12
2014-1-30,53,43,34,-100,-100,-100,0,0,100,0.00,40.00,0,-999,0,0.04
2014-1-31,48,35,27,-100,-100,-100,0,0,100,0.00,40.00,0,-999,0,0.00